Time;durP1;ratioP1;P1;durP2;ratioP2;P2;SDS_P1;SDS_P2;PMS_P1;PMS_P2;Temp;Humidity;BMP_temperature;BMP_pressure;BME280_temperature;BME280_humidity;BME280_pressure;Samples;Min_cycle;Max_cycle;Signal;HPM_P1;HPM_P2
2023/09/17 00:01:23;;;;;;;;;;;;;;;32.82;30.11;98426.31;5029805;28;19921;-92
2023/09/17 00:03:50;;;;;;;;;;;;;;;33.07;29.03;98428.69;5032051;28;19924;-92
2023/09/17 00:06:17;;;;;;;;;;;;;;;33.24;28.37;98435.47;5024823;28;19960;-93
2023/09/17 00:08:43;;;;;;;;;;;;;;;32.62;28.62;98435.47;5032794;28;19917;-94
2023/09/17 00:11:09;;;;;;;;;;;;;;;32.49;29.34;98435.72;5029509;28;20016;-93
2023/09/17 00:13:35;;;;;;;;;;;;;;;32.48;29.33;98428.44;5026319;28;19925;-94
2023/09/17 00:16:01;;;;;;;;;;;;;;;32.59;29.41;98439.28;5031989;28;20012;-94
2023/09/17 00:18:28;;;;;;;;;;;;;;;32.76;28.77;98429.06;5031448;28;19928;-94
2023/09/17 00:20:54;;;;;;;;;;;;;;;32.69;28.60;98423.75;5030355;28;19928;-94
2023/09/17 00:23:20;;;;;;;;;;;;;;;32.47;29.60;98424.00;5034458;28;19921;-94
2023/09/17 00:25:46;;;;;;;;;;;;;;;32.70;29.23;98423.25;5034129;28;20296;-93
2023/09/17 00:28:13;;;;;;;;;;;;;;;32.77;29.31;98421.31;5031291;28;19948;-94
2023/09/17 00:30:39;;;;;;;;;;;;;;;32.60;29.37;98424.56;5032534;28;19925;-93
2023/09/17 00:33:07;;;;;;;;;;;;;;;32.69;29.19;98418.06;5035966;28;19928;-91
2023/09/17 00:35:33;;;;;;;;;;;;;;;32.73;29.73;98412.97;5033214;28;19928;-92
2023/09/17 00:37:59;;;;;;;;;;;;;;;32.85;29.56;98406.22;5031520;28;20027;-92
2023/09/17 00:40:28;;;;;;;;;;;;;;;33.00;29.14;98409.13;5033951;28;20380;-92
2023/09/17 00:42:54;;;;;;;;;;;;;;;32.99;29.41;98411.16;5022043;28;20376;-92
2023/09/17 00:45:20;;;;;;;;;;;;;;;32.80;28.67;98403.25;5024156;28;19983;-91
2023/09/17 00:47:46;;;;;;;;;;;;;;;32.81;27.66;98408.47;5033701;28;19917;-91
2023/09/17 00:50:13;;;;;;;;;;;;;;;32.84;28.26;98416.03;5035563;28;19921;-92
2023/09/17 00:52:39;;;;;;;;;;;;;;;32.94;28.35;98409.00;5034917;28;19917;-91
2023/09/17 00:55:06;;;;;;;;;;;;;;;32.47;28.72;98420.38;5030086;28;19921;-92
2023/09/17 00:57:32;;;;;;;;;;;;;;;32.52;29.40;98419.75;5052861;28;20524;-91
2023/09/17 00:59:58;;;;;;;;;;;;;;;32.61;29.26;98423.31;5022949;28;19964;-92
2023/09/17 01:02:26;;;;;;;;;;;;;;;32.37;29.84;98422.47;5033411;28;19928;-96
2023/09/17 01:04:52;;;;;;;;;;;;;;;32.58;29.78;98414.97;5033497;28;20479;-94
2023/09/17 01:07:19;;;;;;;;;;;;;;;32.46;28.75;98413.94;5024160;28;19974;-96
2023/09/17 01:09:45;;;;;;;;;;;;;;;32.33;28.54;98416.19;5024311;28;19928;-95
2023/09/17 01:12:11;;;;;;;;;;;;;;;32.50;29.15;98416.59;5035646;28;20308;-96
2023/09/17 01:14:38;;;;;;;;;;;;;;;32.63;29.09;98415.06;5029290;28;19925;-95
2023/09/17 01:17:08;;;;;;;;;;;;;;;32.81;28.88;98417.00;5033928;28;20390;-96
2023/09/17 01:19:34;;;;;;;;;;;;;;;32.92;28.72;98431.47;5033114;28;19925;-96
2023/09/17 01:22:20;;;;;;;;;;;;;;;33.06;28.33;98424.25;5035527;28;20307;-94
2023/09/17 01:25:05;;;;;;;;;;;;;;;32.57;28.67;98430.44;5033717;28;19928;-92
2023/09/17 01:27:39;;;;;;;;;;;;;;;31.55;30.10;98429.78;5027066;28;19951;-95
2023/09/17 01:30:10;;;;;;;;;;;;;;;31.72;30.37;98428.91;5020580;28;19971;-94
2023/09/17 01:32:38;;;;;;;;;;;;;;;32.17;29.43;98427.97;5030115;28;19924;-95
2023/09/17 01:35:04;;;;;;;;;;;;;;;31.88;28.96;98430.63;5035357;28;19956;-95
2023/09/17 01:37:34;;;;;;;;;;;;;;;31.35;30.32;98424.56;5027825;28;19928;-93
2023/09/17 01:40:03;;;;;;;;;;;;;;;31.77;29.93;98422.59;5034102;28;19921;-94
2023/09/17 01:42:29;;;;;;;;;;;;;;;31.99;29.97;98428.84;5014595;28;19928;-94
2023/09/17 01:44:57;;;;;;;;;;;;;;;32.33;29.41;98416.19;5032457;28;20016;-94
2023/09/17 01:47:24;;;;;;;;;;;;;;;32.28;29.93;98421.78;5034702;28;19967;-95
2023/09/17 01:49:50;;;;;;;;;;;;;;;32.54;28.84;98411.50;5034887;28;19917;-94
2023/09/17 01:52:22;;;;;;;;;;;;;;;32.16;28.89;98415.03;5032394;28;19948;-95
2023/09/17 01:54:49;;;;;;;;;;;;;;;32.47;28.81;98411.84;5031013;28;20335;-95
2023/09/17 01:57:15;;;;;;;;;;;;;;;32.62;28.67;98413.53;5034086;28;19921;-94
2023/09/17 01:59:41;;;;;;;;;;;;;;;32.83;28.42;98420.16;5033467;28;20027;-95
2023/09/17 02:02:07;;;;;;;;;;;;;;;32.99;28.16;98425.41;5033763;28;19928;-94
2023/09/17 02:04:33;;;;;;;;;;;;;;;32.92;27.88;98414.38;5032717;28;20402;-94
2023/09/17 02:06:59;;;;;;;;;;;;;;;32.83;28.24;98417.31;5032920;28;19921;-93
2023/09/17 02:09:25;;;;;;;;;;;;;;;32.84;28.75;98418.09;5032023;28;20384;-96
2023/09/17 02:11:51;;;;;;;;;;;;;;;32.94;28.82;98413.88;5033718;28;19917;-96
2023/09/17 02:14:17;;;;;;;;;;;;;;;33.05;27.79;98414.94;5031386;28;19967;-93
2023/09/17 02:16:43;;;;;;;;;;;;;;;32.52;28.44;98416.91;5030582;28;19955;-95
2023/09/17 02:19:09;;;;;;;;;;;;;;;32.08;29.10;98414.59;5032202;28;20345;-93
2023/09/17 02:21:35;;;;;;;;;;;;;;;32.28;29.28;98408.31;5031712;28;20909;-91
2023/09/17 02:24:04;;;;;;;;;;;;;;;31.86;29.46;98401.88;5031216;28;19972;-96
2023/09/17 02:26:30;;;;;;;;;;;;;;;32.01;29.64;98405.66;5040401;28;19992;-96
2023/09/17 02:28:56;;;;;;;;;;;;;;;32.01;30.03;98409.28;5035601;28;19980;-96
2023/09/17 02:31:22;;;;;;;;;;;;;;;32.09;29.90;98410.47;5035018;28;19989;-96
2023/09/17 02:33:48;;;;;;;;;;;;;;;32.12;29.41;98405.09;5030030;28;20016;-96
2023/09/17 02:36:14;;;;;;;;;;;;;;;31.97;30.09;98407.88;5034201;28;19991;-96
2023/09/17 02:38:43;;;;;;;;;;;;;;;30.81;31.56;98399.84;5040797;28;19924;-96
2023/09/17 02:41:09;;;;;;;;;;;;;;;31.03;31.59;98396.88;5030257;28;19921;-96
2023/09/17 02:43:36;;;;;;;;;;;;;;;31.61;31.63;98402.28;5036651;28;20012;-96
2023/09/17 02:46:05;;;;;;;;;;;;;;;31.25;32.12;98403.16;5045469;28;19928;-96
2023/09/17 02:48:34;;;;;;;;;;;;;;;31.42;31.39;98405.19;5033568;28;19921;-94
2023/09/17 02:51:03;;;;;;;;;;;;;;;32.13;30.53;98409.53;5043492;28;20015;-95
2023/09/17 02:53:29;;;;;;;;;;;;;;;32.28;30.03;98410.41;5030502;28;19928;-96
2023/09/17 02:55:56;;;;;;;;;;;;;;;32.36;29.73;98405.91;5019848;28;19975;-95
2023/09/17 02:58:23;;;;;;;;;;;;;;;32.66;29.02;98401.94;5033214;28;19917;-95
2023/09/17 03:00:49;;;;;;;;;;;;;;;32.90;28.56;98416.16;5032746;28;19921;-95
2023/09/17 03:03:15;;;;;;;;;;;;;;;33.05;28.47;98417.78;5032436;28;19979;-95
2023/09/17 03:05:47;;;;;;;;;;;;;;;32.52;28.56;98417.69;5033848;28;19925;-96
2023/09/17 03:08:13;;;;;;;;;;;;;;;32.59;28.63;98422.22;5029455;28;19929;-96
2023/09/17 03:10:42;;;;;;;;;;;;;;;32.30;28.60;98419.22;5038476;28;19960;-96
2023/09/17 03:13:10;;;;;;;;;;;;;;;32.53;28.52;98419.28;5034400;28;19928;-94
2023/09/17 03:15:36;;;;;;;;;;;;;;;32.77;28.76;98413.56;5052040;28;19932;-96
2023/09/17 03:18:02;;;;;;;;;;;;;;;32.84;28.95;98421.72;5041511;28;19983;-96
2023/09/17 03:20:33;;;;;;;;;;;;;;;33.07;28.51;98417.31;5041443;28;19921;-96
2023/09/17 03:23:02;;;;;;;;;;;;;;;33.02;28.48;98412.28;5057057;28;19975;-96
2023/09/17 03:25:31;;;;;;;;;;;;;;;32.65;28.87;98408.94;5031000;28;19917;-96
2023/09/17 03:27:59;;;;;;;;;;;;;;;32.02;30.18;98413.69;5033381;28;19921;-96
2023/09/17 03:30:26;;;;;;;;;;;;;;;31.77;30.88;98419.75;5036261;28;19959;-96
2023/09/17 03:32:52;;;;;;;;;;;;;;;31.81;31.04;98411.06;5036989;28;19917;-96
2023/09/17 03:35:18;;;;;;;;;;;;;;;31.91;30.96;98410.53;5034631;28;20369;-96
2023/09/17 03:37:45;;;;;;;;;;;;;;;31.93;30.78;98401.53;5047018;28;19960;-95
2023/09/17 03:40:12;;;;;;;;;;;;;;;32.05;30.36;98406.25;5049512;28;19979;-96
2023/09/17 03:42:38;;;;;;;;;;;;;;;32.51;29.94;98415.34;5043159;28;19929;-96
2023/09/17 03:45:05;;;;;;;;;;;;;;;32.55;30.12;98398.88;5033625;28;19925;-95
2023/09/17 03:47:32;;;;;;;;;;;;;;;32.51;30.26;98395.44;5033368;28;19995;-96
2023/09/17 03:49:58;;;;;;;;;;;;;;;32.57;29.89;98399.19;5033020;28;19921;-95
2023/09/17 03:52:26;;;;;;;;;;;;;;;32.52;30.15;98408.38;5030603;28;20383;-95
2023/09/17 03:54:52;;;;;;;;;;;;;;;32.14;29.55;98408.28;5043788;28;19925;-96
2023/09/17 03:57:18;;;;;;;;;;;;;;;31.85;30.64;98417.38;5051846;28;19921;-96
2023/09/17 03:59:44;;;;;;;;;;;;;;;31.76;30.89;98409.69;5042985;28;19975;-95
2023/09/17 04:02:10;;;;;;;;;;;;;;;31.84;30.46;98416.56;5036765;28;19921;-95
2023/09/17 04:04:36;;;;;;;;;;;;;;;31.91;30.42;98404.88;5038456;28;20112;-96
2023/09/17 04:07:03;;;;;;;;;;;;;;;31.55;31.11;98402.19;5044996;28;20020;-96
2023/09/17 04:09:29;;;;;;;;;;;;;;;31.39;31.41;98399.66;5045480;28;19963;-96
2023/09/17 04:11:57;;;;;;;;;;;;;;;31.61;30.77;98400.25;5042452;28;20388;-96
2023/09/17 04:14:23;;;;;;;;;;;;;;;32.05;30.02;98394.88;5030118;28;19925;-95
2023/09/17 04:16:49;;;;;;;;;;;;;;;32.45;29.30;98400.16;5036198;28;19997;-95
2023/09/17 04:19:16;;;;;;;;;;;;;;;32.69;28.97;98403.84;5067117;28;20373;-95
2023/09/17 04:21:42;;;;;;;;;;;;;;;32.58;28.85;98400.75;5034480;28;20011;-96
2023/09/17 04:24:12;;;;;;;;;;;;;;;32.69;29.58;98415.22;5040592;28;19917;-95
2023/09/17 04:26:38;;;;;;;;;;;;;;;32.75;28.81;98418.94;5057374;28;19977;-96
2023/09/17 04:29:04;;;;;;;;;;;;;;;32.44;28.16;98427.03;5050958;28;19917;-95
2023/09/17 04:31:30;;;;;;;;;;;;;;;31.80;29.39;98427.31;5043961;28;19943;-95
2023/09/17 04:33:56;;;;;;;;;;;;;;;31.44;29.95;98427.41;5049492;28;19917;-96
2023/09/17 04:36:23;;;;;;;;;;;;;;;31.04;30.71;98421.91;5053854;28;20016;-96
2023/09/17 04:38:51;;;;;;;;;;;;;;;31.13;31.13;98426.81;5048494;28;19917;-96
2023/09/17 04:41:17;;;;;;;;;;;;;;;31.68;30.04;98422.63;5067865;28;19924;-96
2023/09/17 04:43:43;;;;;;;;;;;;;;;32.21;29.46;98422.13;5073768;28;19925;-96
2023/09/17 04:46:09;;;;;;;;;;;;;;;32.48;29.42;98424.81;5055673;28;19944;-96
2023/09/17 04:48:36;;;;;;;;;;;;;;;32.43;28.69;98434.78;5042818;28;19940;-96
2023/09/17 04:51:02;;;;;;;;;;;;;;;32.00;29.16;98429.63;5034848;28;20029;-96
2023/09/17 04:53:28;;;;;;;;;;;;;;;31.50;29.93;98428.38;5036907;28;19940;-96
2023/09/17 04:55:54;;;;;;;;;;;;;;;31.54;30.05;98425.34;5083025;28;19917;-96
2023/09/17 04:58:20;;;;;;;;;;;;;;;31.50;30.10;98425.53;5057217;28;19917;-96
2023/09/17 05:00:47;;;;;;;;;;;;;;;31.85;29.88;98428.72;5058444;28;19927;-96
2023/09/17 05:03:13;;;;;;;;;;;;;;;32.21;29.83;98437.09;5053216;28;19940;-95
2023/09/17 05:05:39;;;;;;;;;;;;;;;32.55;29.74;98441.53;5052102;28;19974;-96
2023/09/17 05:08:05;;;;;;;;;;;;;;;32.78;29.58;98454.16;5049176;28;19920;-95
2023/09/17 05:10:31;;;;;;;;;;;;;;;32.95;29.38;98450.41;5046321;28;20300;-95
2023/09/17 05:12:57;;;;;;;;;;;;;;;32.71;29.65;98449.63;5053145;28;19924;-96
2023/09/17 05:15:23;;;;;;;;;;;;;;;32.61;30.17;98448.91;5052158;28;19968;-96
2023/09/17 05:17:49;;;;;;;;;;;;;;;32.61;30.57;98448.91;5054576;28;19925;-96
2023/09/17 05:20:18;;;;;;;;;;;;;;;32.48;30.44;98441.84;5057668;28;20320;-95
2023/09/17 05:22:44;;;;;;;;;;;;;;;32.47;31.36;98443.91;5049751;28;20364;-95
2023/09/17 05:25:10;;;;;;;;;;;;;;;33.03;30.58;98443.09;5045540;28;19939;-96
2023/09/17 05:27:36;;;;;;;;;;;;;;;33.62;29.48;98454.56;5080071;28;20058;-95
2023/09/17 05:30:02;;;;;;;;;;;;;;;33.75;29.65;98446.53;5044629;28;19917;-95
2023/09/17 05:32:28;;;;;;;;;;;;;;;33.50;29.55;98453.56;5045543;28;20024;-96
2023/09/17 05:34:57;;;;;;;;;;;;;;;33.55;30.00;98457.81;5044702;28;19929;-96
2023/09/17 05:37:23;;;;;;;;;;;;;;;33.30;30.22;98451.38;5055211;28;19994;-95
2023/09/17 05:39:49;;;;;;;;;;;;;;;33.21;30.47;98454.31;5052206;28;19968;-96
2023/09/17 05:42:15;;;;;;;;;;;;;;;33.62;30.19;98463.13;5055815;28;19917;-96
2023/09/17 05:44:41;;;;;;;;;;;;;;;34.30;29.67;98478.81;5052837;28;19925;-96
2023/09/17 05:47:07;;;;;;;;;;;;;;;34.00;29.76;98463.78;5055996;28;19917;-96
2023/09/17 05:49:33;;;;;;;;;;;;;;;33.84;30.22;98467.13;5057074;28;19921;-96
2023/09/17 05:51:59;;;;;;;;;;;;;;;34.07;30.48;98463.41;5056626;28;19905;-90
2023/09/17 05:54:25;;;;;;;;;;;;;;;33.88;30.40;98466.94;5060557;28;19909;-87
2023/09/17 05:56:51;;;;;;;;;;;;;;;33.81;31.45;98458.81;5060476;28;19921;-96
2023/09/17 05:59:17;;;;;;;;;;;;;;;33.75;31.67;98470.09;5058354;28;19915;-92
2023/09/17 06:01:43;;;;;;;;;;;;;;;33.30;32.34;98474.13;5060615;28;19905;-85
2023/09/17 06:04:09;;;;;;;;;;;;;;;33.25;32.20;98468.34;5060499;28;19980;-88
2023/09/17 06:06:35;;;;;;;;;;;;;;;33.49;32.10;98471.94;5039214;28;19902;-95
2023/09/17 06:09:01;;;;;;;;;;;;;;;33.37;32.55;98473.00;5034942;28;19940;-92
2023/09/17 06:11:27;;;;;;;;;;;;;;;33.49;31.86;98471.16;5040662;28;19932;-87
2023/09/17 06:13:53;;;;;;;;;;;;;;;33.51;31.58;98471.44;5037950;28;19926;-96
2023/09/17 06:16:20;;;;;;;;;;;;;;;33.47;31.85;98471.63;5038823;28;19905;-86
2023/09/17 06:18:46;;;;;;;;;;;;;;;33.63;31.99;98476.09;5040199;28;19925;-85
2023/09/17 06:21:13;;;;;;;;;;;;;;;33.68;31.77;98470.47;5040164;28;19978;-88
2023/09/17 06:23:39;;;;;;;;;;;;;;;33.91;31.52;98483.84;5056386;28;19932;-86
2023/09/17 06:26:08;;;;;;;;;;;;;;;34.24;31.04;98483.63;5040353;28;19925;-85
2023/09/17 06:28:34;;;;;;;;;;;;;;;34.23;31.53;98484.13;5040295;28;19912;-88
2023/09/17 06:31:01;;;;;;;;;;;;;;;34.34;30.95;98490.78;5040267;28;19906;-86
2023/09/17 06:33:28;;;;;;;;;;;;;;;34.36;30.59;98481.72;5039246;28;19909;-90
2023/09/17 06:35:54;;;;;;;;;;;;;;;34.66;31.39;98478.31;5362147;23;19909;-88
2023/09/17 06:38:20;;;;;;;;;;;;;;;34.81;30.02;98472.56;5060047;28;19924;-86
2023/09/17 06:40:46;;;;;;;;;;;;;;;35.06;31.03;98489.00;5059938;28;19912;-87
2023/09/17 06:43:13;;;;;;;;;;;;;;;35.58;29.97;98486.25;5057810;28;20023;-96
2023/09/17 06:45:39;;;;;;;;;;;;;;;35.42;29.83;98479.84;5046015;28;20019;-96
2023/09/17 06:48:05;;;;;;;;;;;;;;;35.14;30.34;98487.31;5033203;28;19917;-96
2023/09/17 06:50:31;;;;;;;;;;;;;;;35.04;30.99;98491.56;5032032;28;19924;-96
2023/09/17 06:52:57;;;;;;;;;;;;;;;34.80;30.60;98484.50;5019468;28;19922;-96
2023/09/17 06:55:23;;;;;;;;;;;;;;;34.82;31.19;98487.63;5021077;28;20389;-94
2023/09/17 06:57:49;;;;;;;;;;;;;;;35.20;30.64;98493.84;5012926;28;19929;-96
2023/09/17 07:00:15;;;;;;;;;;;;;;;35.20;31.37;98490.19;5007922;28;19921;-96
2023/09/17 07:02:41;;;;;;;;;;;;;;;35.15;30.61;98490.94;5012611;28;19968;-96
2023/09/17 07:05:10;;;;;;;;;;;;;;;35.04;31.24;98494.44;5013603;28;19925;-96
2023/09/17 07:07:36;;;;;;;;;;;;;;;35.09;30.96;98493.72;5015675;28;20012;-96
2023/09/17 07:10:04;;;;;;;;;;;;;;;35.02;30.65;98491.28;5017561;28;19930;-96
2023/09/17 07:12:35;;;;;;;;;;;;;;;35.15;31.66;98488.84;5017833;28;20377;-96
2023/09/17 07:15:02;;;;;;;;;;;;;;;34.18;32.63;98479.91;5014792;28;20008;-96
2023/09/17 07:17:28;;;;;;;;;;;;;;;34.79;30.73;98482.91;5011435;28;19921;-96
2023/09/17 07:19:53;;;;;;;;;;;;;;;34.82;31.27;98494.13;5008841;28;19944;-95
2023/09/17 07:22:19;;;;;;;;;;;;;;;34.82;31.77;98487.63;5017048;28;19922;-94
2023/09/17 07:24:45;;;;;;;;;;;;;;;34.66;32.03;98491.78;5020693;28;19921;-91
2023/09/17 07:27:13;;;;;;;;;;;;;;;34.26;32.18;98486.00;5005453;28;19964;-90
2023/09/17 07:29:39;;;;;;;;;;;;;;;34.37;31.75;98494.72;5013863;28;19925;-91
2023/09/17 07:32:05;;;;;;;;;;;;;;;34.54;32.11;98498.66;5013902;28;19917;-87
2023/09/17 07:34:31;;;;;;;;;;;;;;;35.24;31.74;98496.50;5016999;28;20389;-92
2023/09/17 07:36:59;;;;;;;;;;;;;;;35.62;29.96;98501.88;5018809;28;19925;-91
2023/09/17 07:39:26;;;;;;;;;;;;;;;35.01;30.61;98500.34;5010476;28;20395;-91
2023/09/17 07:41:52;;;;;;;;;;;;;;;34.87;31.82;98504.03;5015619;28;20385;-95
2023/09/17 07:44:18;;;;;;;;;;;;;;;35.20;31.26;98501.63;5013803;28;19928;-91
2023/09/17 07:46:44;;;;;;;;;;;;;;;34.81;31.38;98501.09;5015840;28;19941;-90
2023/09/17 07:49:10;;;;;;;;;;;;;;;35.62;30.03;98501.88;5021526;28;19947;-92
2023/09/17 07:51:36;;;;;;;;;;;;;;;35.07;30.31;98501.22;5024780;28;19925;-90
2023/09/17 07:54:02;;;;;;;;;;;;;;;34.93;31.06;98499.97;5018722;28;19922;-93
2023/09/17 07:56:28;;;;;;;;;;;;;;;35.01;30.55;98500.34;5018038;28;20469;-94
2023/09/17 07:58:54;;;;;;;;;;;;;;;35.40;30.30;98513.81;5019737;28;19944;-93
2023/09/17 08:01:20;;;;;;;;;;;;;;;35.39;30.03;98503.69;5021656;28;19922;-91
2023/09/17 08:03:46;;;;;;;;;;;;;;;35.23;30.53;98509.19;5021013;28;19925;-91
2023/09/17 08:06:15;;;;;;;;;;;;;;;35.47;30.24;98514.66;5014281;28;19944;-91
2023/09/17 08:08:45;;;;;;;;;;;;;;;35.50;30.98;98508.75;5015417;28;19925;-92
2023/09/17 08:11:14;;;;;;;;;;;;;;;35.56;30.14;98501.03;5014487;28;20285;-94
2023/09/17 08:13:40;;;;;;;;;;;;;;;35.79;29.40;98505.69;5012897;28;19934;-94
2023/09/17 08:16:07;;;;;;;;;;;;;;;36.00;29.96;98503.56;5010214;28;19937;-94
2023/09/17 08:18:33;;;;;;;;;;;;;;;36.14;29.28;98493.28;5011307;28;19941;-93
2023/09/17 08:20:59;;;;;;;;;;;;;;;35.51;29.56;98493.19;5011069;28;19933;-94
2023/09/17 08:23:25;;;;;;;;;;;;;;;35.93;29.66;98493.34;5015607;28;19921;-92
2023/09/17 08:25:52;;;;;;;;;;;;;;;36.02;28.34;98498.91;5013293;28;20011;-92
2023/09/17 08:28:22;;;;;;;;;;;;;;;36.68;28.59;98495.00;5010796;28;19927;-93
2023/09/17 08:30:48;;;;;;;;;;;;;;;37.22;27.37;98496.63;5014898;28;19929;-92
2023/09/17 08:33:15;;;;;;;;;;;;;;;37.40;26.42;98498.25;5015361;28;20348;-92
2023/09/17 08:35:41;;;;;;;;;;;;;;;36.83;28.71;98494.84;5014498;28;19940;-93
2023/09/17 08:38:09;;;;;;;;;;;;;;;37.17;26.38;98494.50;5017119;28;19929;-94
2023/09/17 08:40:35;;;;;;;;;;;;;;;37.30;27.73;98496.88;5014591;28;19948;-93
2023/09/17 08:43:02;;;;;;;;;;;;;;;36.27;27.93;98497.28;5015093;28;19922;-93
2023/09/17 08:45:28;;;;;;;;;;;;;;;36.70;27.04;98501.00;5019279;28;19973;-92
2023/09/17 08:47:54;;;;;;;;;;;;;;;36.93;26.01;98501.94;5012707;28;19928;-93
2023/09/17 08:50:21;;;;;;;;;;;;;;;36.60;26.48;98494.69;5003978;28;19929;-93
2023/09/17 08:52:52;;;;;;;;;;;;;;;36.61;26.63;98490.56;5007541;28;19922;-94
2023/09/17 08:55:19;;;;;;;;;;;;;;;36.91;25.31;98488.13;5008995;28;19926;-93
2023/09/17 08:57:58;;;;;;;;;;;;;;;37.06;27.10;98494.44;5006399;28;20437;-94
2023/09/17 09:00:26;;;;;;;;;;;;;;;37.06;25.63;98494.44;5002380;28;19971;-94
2023/09/17 09:02:59;;;;;;;;;;;;;;;36.36;25.66;98494.22;5017758;28;19936;-94
2023/09/17 09:05:26;;;;;;;;;;;;;;;36.40;26.12;98489.09;5005107;28;19921;-94
2023/09/17 09:07:52;;;;;;;;;;;;;;;36.35;27.25;98484.09;5013614;28;19930;-94
2023/09/17 09:10:19;;;;;;;;;;;;;;;35.90;26.18;98490.72;5018134;28;21193;-94
2023/09/17 09:12:48;;;;;;;;;;;;;;;36.45;27.36;98491.22;5011597;28;20010;-93
2023/09/17 09:15:14;;;;;;;;;;;;;;;36.46;26.23;98489.13;5016324;28;19921;-95
2023/09/17 09:17:40;;;;;;;;;;;;;;;35.48;26.70;98494.16;5016084;28;20028;-91
2023/09/17 09:20:09;;;;;;;;;;;;;;;35.27;26.46;98496.28;5009467;28;19972;-91
2023/09/17 09:22:36;;;;;;;;;;;;;;;36.00;25.41;98490.06;5008516;28;19975;-91
2023/09/17 09:25:03;;;;;;;;;;;;;;;37.21;25.15;98494.25;5010242;28;19960;-91
2023/09/17 09:27:29;;;;;;;;;;;;;;;37.64;25.78;98489.19;5007756;28;19925;-92
2023/09/17 09:29:55;;;;;;;;;;;;;;;37.39;25.85;98494.59;5003361;28;20368;-93
2023/09/17 09:32:21;;;;;;;;;;;;;;;37.23;25.54;98485.91;5010158;28;19921;-92
2023/09/17 09:34:48;;;;;;;;;;;;;;;36.98;24.46;98487.66;5012528;28;19929;-92
2023/09/17 09:37:14;;;;;;;;;;;;;;;37.23;24.85;98483.06;5009677;28;19960;-94
2023/09/17 09:39:42;;;;;;;;;;;;;;;37.41;25.56;98487.59;5012042;28;19917;-90
2023/09/17 09:42:08;;;;;;;;;;;;;;;37.67;24.58;98491.78;5009376;28;19922;-92
2023/09/17 09:44:35;;;;;;;;;;;;;;;37.97;26.21;98477.81;5010886;28;19964;-91
2023/09/17 09:47:05;;;;;;;;;;;;;;;38.14;25.86;98480.69;5003414;28;20954;-90
2023/09/17 09:49:40;;;;;;;;;;;;;;;38.08;25.34;98479.88;5016054;28;19925;-91
2023/09/17 09:52:07;;;;;;;;;;;;;;;37.87;27.29;98483.00;5007660;28;20301;-90
2023/09/17 09:54:34;;;;;;;;;;;;;;;37.53;26.83;98478.47;5005506;28;20297;-91
2023/09/17 09:57:05;;;;;;;;;;;;;;;37.74;26.14;98476.19;5006298;28;20424;-92
2023/09/17 09:59:34;;;;;;;;;;;;;;;38.09;28.16;98467.88;5007422;28;19922;-91
2023/09/17 10:02:04;;;;;;;;;;;;;;;37.88;27.99;98466.59;5009609;28;20287;-91
2023/09/17 10:04:30;;;;;;;;;;;;;;;38.06;28.06;98471.81;5012161;28;19925;-92
2023/09/17 10:06:57;;;;;;;;;;;;;;;38.11;28.76;98470.25;5012752;28;19980;-90
2023/09/17 10:09:25;;;;;;;;;;;;;;;38.10;27.24;98472.31;5005914;28;19952;-91
2023/09/17 10:11:51;;;;;;;;;;;;;;;38.26;27.07;98474.38;5009656;28;19922;-94
2023/09/17 10:14:19;;;;;;;;;;;;;;;38.10;28.01;98474.41;5007381;28;20012;-93
2023/09/17 10:16:45;;;;;;;;;;;;;;;38.05;27.84;98470.22;5007364;28;20273;-91
2023/09/17 10:19:18;;;;;;;;;;;;;;;37.95;25.99;98466.06;5004857;28;20020;-94
2023/09/17 10:21:45;;;;;;;;;;;;;;;38.11;26.54;98473.91;5003635;28;19927;-93
2023/09/17 10:24:12;;;;;;;;;;;;;;;38.25;25.68;98469.97;5005892;28;19929;-94
2023/09/17 10:26:42;;;;;;;;;;;;;;;38.27;26.07;98467.38;5005844;28;19929;-93
2023/09/17 10:29:09;;;;;;;;;;;;;;;38.27;26.06;98461.66;5003381;28;19921;-93
2023/09/17 10:31:36;;;;;;;;;;;;;;;38.24;25.64;98465.53;5008153;28;20028;-92
2023/09/17 10:34:03;;;;;;;;;;;;;;;38.66;24.60;98465.22;5003554;28;19930;-93
2023/09/17 10:36:31;;;;;;;;;;;;;;;37.52;24.92;98474.06;5012299;28;19925;-93
2023/09/17 10:39:01;;;;;;;;;;;;;;;37.44;25.12;98478.72;5005485;28;19936;-91
2023/09/17 10:41:28;;;;;;;;;;;;;;;37.75;25.87;98466.28;5000448;28;20043;-91
2023/09/17 10:43:58;;;;;;;;;;;;;;;37.86;25.48;98464.22;5003340;28;19942;-92
2023/09/17 10:46:26;;;;;;;;;;;;;;;38.02;25.18;98465.53;5008559;28;20007;-92
2023/09/17 10:48:54;;;;;;;;;;;;;;;38.30;27.42;98465.56;5009034;28;19944;-92
2023/09/17 10:51:20;;;;;;;;;;;;;;;38.84;26.25;98457.38;5012436;28;19921;-92
2023/09/17 10:53:46;;;;;;;;;;;;;;;39.18;25.99;98461.69;5007230;28;20016;-92
2023/09/17 10:56:15;;;;;;;;;;;;;;;39.27;25.77;98465.03;5008231;28;19930;-92
2023/09/17 10:58:45;;;;;;;;;;;;;;;39.25;26.00;98459.03;5012943;28;19927;-91
2023/09/17 11:01:17;;;;;;;;;;;;;;;39.28;27.18;98463.72;5013400;28;19937;-93
2023/09/17 11:03:49;;;;;;;;;;;;;;;39.51;27.33;98467.25;5006374;28;19925;-92
2023/09/17 11:06:23;;;;;;;;;;;;;;;39.02;27.27;98460.44;5010835;28;19971;-94
2023/09/17 11:08:51;;;;;;;;;;;;;;;38.54;28.96;98465.75;5008889;28;19969;-94
2023/09/17 11:11:18;;;;;;;;;;;;;;;38.38;29.38;98455.88;5012136;28;19936;-93
2023/09/17 11:13:46;;;;;;;;;;;;;;;38.07;30.00;98456.16;5006416;28;19921;-93
2023/09/17 11:16:34;;;;;;;;;;;;;;;37.69;28.77;98460.56;5002083;28;20287;-93
2023/09/17 11:19:06;;;;;;;;;;;;;;;37.41;28.79;98458.94;5007641;28;20020;-95
2023/09/17 11:21:33;;;;;;;;;;;;;;;37.48;28.57;98464.16;5009995;28;20400;-93
2023/09/17 11:23:59;;;;;;;;;;;;;;;38.05;27.98;98458.75;5012462;28;20024;-94
2023/09/17 11:26:28;;;;;;;;;;;;;;;38.07;25.17;98453.28;5009694;28;20396;-94
2023/09/17 11:28:56;;;;;;;;;;;;;;;38.09;25.30;98447.78;5012621;28;19933;-93
2023/09/17 11:31:24;;;;;;;;;;;;;;;37.68;25.78;98449.59;5005772;28;19917;-93
2023/09/17 11:33:51;;;;;;;;;;;;;;;36.72;25.30;98455.47;5008888;28;19927;-93
2023/09/17 11:36:17;;;;;;;;;;;;;;;35.34;25.55;98458.72;5008362;28;19925;-93
2023/09/17 11:38:47;;;;;;;;;;;;;;;35.61;25.52;98448.91;5006585;28;20015;-92
2023/09/17 11:41:18;;;;;;;;;;;;;;;36.85;23.66;98452.16;5011941;28;19922;-93
2023/09/17 11:43:47;;;;;;;;;;;;;;;38.23;28.09;98445.97;5013890;28;19929;-94
2023/09/17 11:46:14;;;;;;;;;;;;;;;39.29;23.89;98439.44;5012804;28;19968;-91
2023/09/17 11:48:43;;;;;;;;;;;;;;;39.44;24.51;98444.84;5009708;28;19928;-94
2023/09/17 11:51:29;;;;;;;;;;;;;;;39.26;25.84;98443.34;5012890;28;19922;-94
2023/09/17 11:53:56;;;;;;;;;;;;;;;38.99;25.28;98449.22;5010943;28;19918;-92
2023/09/17 11:56:24;;;;;;;;;;;;;;;38.96;24.27;98444.50;5000463;28;19948;-94
2023/09/17 11:59:06;;;;;;;;;;;;;;;39.28;28.78;98445.72;5002984;28;19968;-95
2023/09/17 12:01:36;;;;;;;;;;;;;;;39.52;25.00;98442.94;5000319;28;19928;-93
2023/09/17 12:04:04;;;;;;;;;;;;;;;38.95;24.50;98440.09;5002620;28;20000;-94
2023/09/17 12:06:30;;;;;;;;;;;;;;;38.42;25.55;98439.19;5003633;28;19930;-93
2023/09/17 12:08:59;;;;;;;;;;;;;;;38.32;28.04;98437.13;5012449;28;19918;-92
2023/09/17 12:11:26;;;;;;;;;;;;;;;38.41;24.13;98433.97;5008084;28;19921;-91
2023/09/17 12:13:53;;;;;;;;;;;;;;;37.80;24.10;98429.03;5014573;28;20393;-96
2023/09/17 12:16:23;;;;;;;;;;;;;;;36.84;26.92;98431.34;5008329;28;19922;-94
2023/09/17 12:18:52;;;;;;;;;;;;;;;37.12;27.97;98440.06;5012507;28;19929;-90
2023/09/17 12:21:25;;;;;;;;;;;;;;;37.02;28.12;98433.00;5007001;28;20344;-93
2023/09/17 12:23:57;;;;;;;;;;;;;;;36.33;27.84;98420.91;5013002;28;19928;-94
2023/09/17 12:29:28;;;;;;;;;;;;;;;35.52;28.43;98422.56;5010553;28;19992;-94
2023/09/17 12:31:54;;;;;;;;;;;;;;;36.74;27.84;98421.41;5005946;28;20463;-92
2023/09/17 12:34:20;;;;;;;;;;;;;;;35.98;27.57;98421.19;5007535;28;19968;-91
2023/09/17 12:36:46;;;;;;;;;;;;;;;36.92;26.92;98418.16;5008337;28;19933;-91
2023/09/17 12:39:12;;;;;;;;;;;;;;;37.07;27.23;98418.69;5006206;28;19921;-92
2023/09/17 12:41:38;;;;;;;;;;;;;;;36.36;26.06;98414.13;5001533;28;19984;-91
2023/09/17 12:44:04;;;;;;;;;;;;;;;36.43;27.05;98422.25;5006442;28;19922;-92
2023/09/17 12:46:30;;;;;;;;;;;;;;;37.45;26.19;98417.25;5007474;28;19968;-92
2023/09/17 12:48:56;;;;;;;;;;;;;;;37.76;24.88;98410.50;5008168;28;19972;-91
2023/09/17 12:51:22;;;;;;;;;;;;;;;38.20;23.32;98413.38;5008890;28;19921;-91